KHYS/HYS METAR and TAF weather

Enter ICAO airport designator
Station Type Date Time Source
KHYS METAR 2022/05/26 03:56 UTC NOAA

KHYS 260356Z AUTO 33011KT 10SM OVC110 11/08 A2983 RMK AO2 SLP102 T01110083 $


Station Type Date Time Source
KHYS Decoded METAR 2022/05/26 03:56 UTC NOAA

Hays, Hays Regional Airport, KS, United States (KHYS) 38-51N 099-16W
May 25, 2022 - 11:56 PM EDT / 2022.05.26 0356 UTC
Wind: from the NNW (330 degrees) at 13 MPH (11 KT):0
Visibility: 10 mile(s):0
Sky conditions: overcast
Temperature: 52.0 F (11.1 C)
Dew Point: 46.9 F (8.3 C)
Relative Humidity: 82%
Pressure (altimeter): 29.83 in. Hg (1010 hPa)
ob: KHYS 260356Z AUTO 33011KT 10SM OVC110 11/08 A2983 RMK AO2 SLP102 T01110083
cycle: 4

Station Type Date Time Source
KHYS TAF 2022/05/25 18:22 UTC NOAA

TAF KHYS 251720Z 2518/2618 35018G30KT P6SM -SHRA OVC010
FM252000 35016G27KT 4SM -SHRA BR OVC010
FM260200 35014KT P6SM VCSH BKN030
FM260500 35012KT P6SM BKN035
FM261400 33016G24KT P6SM SCT250

Example: see airport list